Time;durP1;ratioP1;P1;durP2;ratioP2;P2;SDS_P1;SDS_P2;PMS_P1;PMS_P2;Temp;Humidity;BMP_temperature;BMP_pressure;BME280_temperature;BME280_humidity;BME280_pressure;Samples;Min_cycle;Max_cycle;Signal;HPM_P1;HPM_P2
2022/12/27 00:01:42;;;;;;;9.03;2.77;;;4.50;99.90;;;;;;5056110;28;20465;-75
2022/12/27 00:04:10;;;;;;;9.10;3.47;;;4.40;99.90;;;;;;5038213;28;20452;-76
2022/12/27 00:06:40;;;;;;;10.57;3.47;;;4.40;99.90;;;;;;5055951;28;20461;-76
2022/12/27 00:09:09;;;;;;;6.97;2.93;;;4.40;99.90;;;;;;5038083;28;20458;-76
2022/12/27 00:11:38;;;;;;;7.60;2.93;;;4.40;99.90;;;;;;5038095;28;20819;-75
2022/12/27 00:14:07;;;;;;;9.70;3.50;;;4.40;99.90;;;;;;5055765;28;20852;-75
2022/12/27 00:16:35;;;;;;;6.53;3.23;;;4.40;99.90;;;;;;5037882;28;20457;-75
2022/12/27 00:19:03;;;;;;;7.90;3.03;;;4.40;99.90;;;;;;5037920;28;20966;-75
2022/12/27 00:21:33;;;;;;;6.97;3.50;;;4.40;99.90;;;;;;5037857;28;20444;-76
2022/12/27 00:24:03;;;;;;;9.10;3.10;;;4.40;99.90;;;;;;5037486;28;20791;-76
2022/12/27 00:26:33;;;;;;;8.70;3.10;;;4.30;99.90;;;;;;5055707;28;20480;-75
2022/12/27 00:29:02;;;;;;;4.67;2.47;;;4.30;99.90;;;;;;5037805;28;20819;-76
2022/12/27 00:31:32;;;;;;;7.80;3.00;;;4.30;99.90;;;;;;5037718;28;20806;-76
2022/12/27 00:34:02;;;;;;;7.90;3.00;;;4.30;99.90;;;;;;5055623;28;20861;-76
2022/12/27 00:36:32;;;;;;;7.93;3.57;;;4.30;99.90;;;;;;5055742;28;20457;-76
2022/12/27 00:39:01;;;;;;;8.93;3.13;;;4.30;99.90;;;;;;5037823;28;20477;-76
2022/12/27 00:41:31;;;;;;;9.23;3.07;;;4.30;99.90;;;;;;5038150;28;20453;-77
2022/12/27 00:43:59;;;;;;;8.13;3.03;;;4.20;99.90;;;;;;5038246;28;20948;-77
2022/12/27 00:46:27;;;;;;;8.80;3.50;;;4.20;99.90;;;;;;5061231;28;20453;-77
2022/12/27 00:48:57;;;;;;;7.20;3.17;;;4.20;99.90;;;;;;5058170;28;20454;-77
2022/12/27 00:51:26;;;;;;;9.60;3.40;;;4.20;99.90;;;;;;5058073;28;20510;-77
2022/12/27 00:53:54;;;;;;;7.70;3.60;;;4.20;99.90;;;;;;5057571;28;20458;-77
2022/12/27 00:56:26;;;;;;;8.40;2.70;;;4.20;99.90;;;;;;5075268;28;20552;-77
2022/12/27 00:58:58;;;;;;;8.60;3.10;;;4.20;99.90;;;;;;5075738;28;20979;-77
2022/12/27 01:01:28;;;;;;;8.57;3.10;;;4.20;99.90;;;;;;5057887;28;20445;-77
2022/12/27 01:03:58;;;;;;;6.20;3.07;;;4.20;99.90;;;;;;5072501;28;20450;-77
2022/12/27 01:06:28;;;;;;;7.60;3.20;;;4.20;99.90;;;;;;5037617;28;20462;-76
2022/12/27 01:08:57;;;;;;;7.00;3.23;;;4.20;99.90;;;;;;5055817;28;20422;-77
2022/12/27 01:11:27;;;;;;;12.53;3.90;;;4.20;99.90;;;;;;5055117;28;20450;-76
2022/12/27 01:13:57;;;;;;;7.53;3.30;;;4.10;99.90;;;;;;5055443;28;21034;-77
2022/12/27 01:16:28;;;;;;;8.27;3.40;;;4.10;99.90;;;;;;5037121;28;20470;-77
2022/12/27 01:18:56;;;;;;;8.87;3.73;;;4.10;99.90;;;;;;5054841;28;20497;-77
2022/12/27 01:21:26;;;;;;;7.67;3.73;;;4.10;99.90;;;;;;5054913;28;20449;-77
2022/12/27 01:23:55;;;;;;;9.97;3.80;;;4.10;99.90;;;;;;5054581;28;20434;-76
2022/12/27 01:26:24;;;;;;;10.97;4.00;;;4.10;99.90;;;;;;5036688;28;20469;-76
2022/12/27 01:28:53;;;;;;;7.70;3.10;;;4.10;99.90;;;;;;5036634;28;20827;-77
2022/12/27 01:31:24;;;;;;;7.47;3.30;;;4.10;99.90;;;;;;5054796;28;20504;-77
2022/12/27 01:33:55;;;;;;;8.43;3.80;;;4.10;99.90;;;;;;5035820;28;20441;-77
2022/12/27 01:36:25;;;;;;;9.47;3.07;;;4.10;99.90;;;;;;5054528;28;20541;-77
2022/12/27 01:38:54;;;;;;;4.83;3.67;;;4.10;99.90;;;;;;5054593;28;20425;-77
2022/12/27 01:44:50;;;;;;;9.37;4.43;;;4.10;99.90;;;;;;5036353;28;20871;-77
2022/12/27 01:47:26;;;;;;;10.30;4.17;;;4.10;99.90;;;;;;5053250;28;20473;-77
2022/12/27 01:50:03;;;;;;;10.10;3.73;;;4.10;99.90;;;;;;5050338;28;20447;-77
2022/12/27 01:52:35;;;;;;;8.30;3.50;;;4.10;99.90;;;;;;5036077;28;20446;-77
2022/12/27 01:55:10;;;;;;;10.33;3.83;;;4.10;99.90;;;;;;5053870;28;20962;-77
2022/12/27 01:57:39;;;;;;;8.53;3.70;;;4.10;99.90;;;;;;5036046;28;20441;-77
2022/12/27 02:00:08;;;;;;;8.20;4.00;;;4.10;99.90;;;;;;5053940;28;20438;-77
2022/12/27 02:02:39;;;;;;;11.03;4.37;;;4.10;99.90;;;;;;5035944;28;20453;-77
2022/12/27 02:05:11;;;;;;;9.43;4.03;;;4.10;99.90;;;;;;5035824;28;20462;-77
2022/12/27 02:07:50;;;;;;;8.80;3.60;;;4.10;99.90;;;;;;5054095;28;20419;-77
2022/12/27 02:10:19;;;;;;;9.20;4.50;;;4.10;99.90;;;;;;5054002;28;20422;-77
2022/12/27 02:12:47;;;;;;;8.77;3.97;;;4.20;99.90;;;;;;5035867;28;20478;-77
2022/12/27 02:15:16;;;;;;;6.43;3.73;;;4.10;99.90;;;;;;5035679;28;20480;-77
2022/12/27 02:17:45;;;;;;;9.83;4.37;;;4.20;99.90;;;;;;5036247;28;20811;-77
2022/12/27 02:20:15;;;;;;;11.70;4.73;;;4.10;99.90;;;;;;5055404;28;20477;-77
2022/12/27 02:26:33;;;;;;;11.33;4.60;;;4.10;99.90;;;;;;5035789;28;20458;-77
2022/12/27 02:29:33;;;;;;;7.53;4.07;;;4.10;99.90;;;;;;5035653;28;20461;-77
2022/12/27 02:32:07;;;;;;;8.77;4.70;;;4.10;99.90;;;;;;5035616;28;20445;-77
2022/12/27 02:34:42;;;;;;;9.10;4.80;;;4.10;99.90;;;;;;5035866;28;20446;-77
2022/12/27 02:37:13;;;;;;;7.60;4.83;;;4.10;99.90;;;;;;5053895;28;20806;-77
2022/12/27 02:39:46;;;;;;;9.70;5.07;;;4.10;99.90;;;;;;5035847;28;20438;-77
2022/12/27 02:53:49;;;;;;;11.97;5.53;;;4.10;99.90;;;;;;5055305;28;20443;-77
2022/12/27 02:59:30;;;;;;;10.90;5.70;;;4.10;99.90;;;;;;5055277;28;20463;-76
2022/12/27 03:05:13;;;;;;;10.23;5.60;;;4.10;99.90;;;;;;5058561;28;20475;-77
2022/12/27 03:07:52;;;;;;;9.60;6.10;;;4.10;99.90;;;;;;5076229;28;20784;-76
2022/12/27 03:16:22;;;;;;;10.90;5.43;;;4.10;99.90;;;;;;5025037;28;20473;-76
2022/12/27 03:19:02;;;;;;;11.70;5.70;;;4.20;99.90;;;;;;5055006;28;20443;-77
2022/12/27 03:27:16;;;;;;;9.03;6.23;;;4.10;99.90;;;;;;5055379;28;20441;-77
2022/12/27 03:35:39;;;;;;;10.70;6.50;;;4.20;99.90;;;;;;5072553;28;20491;-77
2022/12/27 03:38:11;;;;;;;14.37;6.20;;;4.20;99.90;;;;;;5073245;28;20428;-77
2022/12/27 03:43:29;;;;;;;9.03;6.67;;;4.20;99.90;;;;;;5054044;28;20426;-77
2022/12/27 03:48:59;;;;;;;14.10;7.57;;;4.20;99.90;;;;;;5073128;28;20805;-77
2022/12/27 03:51:35;;;;;;;11.63;7.00;;;4.20;99.90;;;;;;5047786;28;20575;-77
2022/12/27 03:54:08;;;;;;;12.80;7.20;;;4.20;99.90;;;;;;5067475;28;20482;-76
2022/12/27 03:56:38;;;;;;;10.90;6.77;;;4.20;99.90;;;;;;5054552;28;20910;-76
2022/12/27 03:59:07;;;;;;;12.50;7.27;;;4.20;99.90;;;;;;5076025;28;20453;-76
2022/12/27 04:01:35;;;;;;;10.87;6.83;;;4.20;99.90;;;;;;5058276;28;20942;-76
2022/12/27 04:04:04;;;;;;;12.73;6.97;;;4.20;99.90;;;;;;5058164;28;20444;-77
2022/12/27 04:06:33;;;;;;;11.33;7.00;;;4.20;99.90;;;;;;5074844;28;20466;-77
2022/12/27 04:36:39;;;;;;;9.50;7.27;;;4.20;99.90;;;;;;5057406;28;20476;-77
2022/12/27 04:39:08;;;;;;;10.63;8.27;;;4.30;99.90;;;;;;5057616;28;20526;-77
2022/12/27 04:55:31;;;;;;;12.00;9.33;;;4.30;99.90;;;;;;5076284;28;20457;-78
2022/12/27 04:57:59;;;;;;;14.70;10.00;;;4.30;99.90;;;;;;5058649;28;20479;-78
2022/12/27 05:03:18;;;;;;;15.33;8.37;;;4.20;99.90;;;;;;5057975;28;20495;-78
2022/12/27 05:05:48;;;;;;;11.70;7.70;;;4.80;99.90;;;;;;5039963;28;20477;-78
2022/12/27 05:14:00;;;;;;;15.10;8.57;;;4.20;99.90;;;;;;5056214;28;20964;-78
2022/12/27 05:16:30;;;;;;;10.00;7.70;;;4.20;99.90;;;;;;5056020;28;20465;-78
2022/12/27 05:18:58;;;;;;;11.20;8.40;;;4.20;99.90;;;;;;5055643;28;20449;-78
2022/12/27 05:21:27;;;;;;;14.30;8.83;;;4.20;99.90;;;;;;5056894;28;20449;-78
2022/12/27 05:26:42;;;;;;;10.20;8.80;;;4.20;99.90;;;;;;5055269;28;20473;-78
2022/12/27 05:29:13;;;;;;;18.97;10.60;;;4.20;99.90;;;;;;5054943;28;20438;-78
2022/12/27 05:31:41;;;;;;;13.93;9.97;;;4.20;99.90;;;;;;5054462;28;20520;-77
2022/12/27 05:34:09;;;;;;;12.63;8.63;;;4.20;99.90;;;;;;5055347;28;20474;-77
2022/12/27 05:36:38;;;;;;;11.43;8.60;;;4.20;99.90;;;;;;5053483;28;20572;-77
2022/12/27 05:39:06;;;;;;;16.07;9.30;;;4.20;99.90;;;;;;5053505;28;20954;-76
2022/12/27 05:41:34;;;;;;;14.27;8.97;;;4.20;99.90;;;;;;5053605;28;20445;-77
2022/12/27 05:44:04;;;;;;;13.20;9.30;;;4.20;99.90;;;;;;5054264;28;20541;-77
2022/12/27 05:46:34;;;;;;;13.43;8.50;;;4.30;99.90;;;;;;5053021;28;20478;-77
2022/12/27 05:49:03;;;;;;;11.90;8.30;;;4.30;99.90;;;;;;5054415;28;20450;-77
2022/12/27 05:51:31;;;;;;;12.40;9.07;;;4.30;99.90;;;;;;5052776;28;20465;-77
2022/12/27 05:53:59;;;;;;;12.47;8.30;;;4.20;99.90;;;;;;5053878;28;20953;-77
2022/12/27 05:56:27;;;;;;;11.90;10.00;;;4.30;99.90;;;;;;5067123;28;20461;-77
2022/12/27 05:58:55;;;;;;;15.13;11.00;;;4.20;99.90;;;;;;5066294;28;20448;-77
2022/12/27 06:01:25;;;;;;;12.00;9.87;;;4.20;99.90;;;;;;5050077;28;20464;-77
2022/12/27 06:03:53;;;;;;;13.03;9.80;;;4.20;99.90;;;;;;5074359;28;21009;-77
2022/12/27 06:06:21;;;;;;;10.97;8.80;;;4.20;99.90;;;;;;5074369;28;20518;-77
2022/12/27 06:08:49;;;;;;;14.70;9.20;;;4.20;99.90;;;;;;5056272;28;20441;-77
2022/12/27 06:11:19;;;;;;;10.27;8.03;;;4.20;99.90;;;;;;5056148;28;20812;-77
2022/12/27 06:13:50;;;;;;;14.43;8.20;;;4.20;99.90;;;;;;5074627;28;20454;-77
2022/12/27 06:16:19;;;;;;;14.97;9.33;;;4.20;99.90;;;;;;5073795;28;21014;-77
2022/12/27 06:18:49;;;;;;;8.57;6.80;;;4.20;99.90;;;;;;5073840;28;20563;-77
2022/12/27 06:21:20;;;;;;;11.70;6.60;;;4.20;99.90;;;;;;5055697;28;20972;-77
2022/12/27 06:23:49;;;;;;;7.70;5.97;;;4.20;99.90;;;;;;5072448;28;20444;-77
2022/12/27 06:26:20;;;;;;;8.33;5.63;;;4.20;99.90;;;;;;5074009;28;20449;-77
2022/12/27 06:28:48;;;;;;;9.77;5.23;;;4.20;99.90;;;;;;5055754;28;20528;-77
2022/12/27 06:31:17;;;;;;;10.13;5.63;;;4.20;99.90;;;;;;5055639;28;20449;-77
2022/12/27 06:33:47;;;;;;;11.10;5.20;;;4.20;99.90;;;;;;5074071;28;20444;-77
2022/12/27 06:36:19;;;;;;;7.80;5.23;;;4.30;99.90;;;;;;5073393;28;20461;-77
2022/12/27 06:38:48;;;;;;;10.47;5.10;;;4.30;99.90;;;;;;5073682;28;20854;-77
2022/12/27 06:41:21;;;;;;;7.80;5.50;;;4.30;99.90;;;;;;5074538;28;20437;-77
2022/12/27 06:43:55;;;;;;;7.43;4.70;;;4.30;99.90;;;;;;5055624;28;20434;-77
2022/12/27 06:46:24;;;;;;;9.30;4.70;;;4.30;99.90;;;;;;5073497;28;20487;-76
2022/12/27 06:48:52;;;;;;;12.17;5.70;;;4.30;99.90;;;;;;5072037;28;20524;-77
2022/12/27 06:51:22;;;;;;;8.73;5.10;;;4.30;99.90;;;;;;5055178;28;20453;-77
2022/12/27 06:53:50;;;;;;;6.90;4.70;;;4.30;99.90;;;;;;5073748;28;20776;-77
2022/12/27 06:56:21;;;;;;;8.37;5.60;;;4.20;99.90;;;;;;5043254;28;20465;-76
2022/12/27 06:58:51;;;;;;;9.17;5.57;;;4.20;99.90;;;;;;5035183;28;20519;-77
2022/12/27 07:01:21;;;;;;;13.10;5.90;;;4.30;99.90;;;;;;5053347;28;20438;-77
2022/12/27 07:03:50;;;;;;;7.47;5.17;;;4.20;99.90;;;;;;5035197;28;20446;-76
2022/12/27 07:06:20;;;;;;;10.20;6.03;;;4.20;99.90;;;;;;5053030;28;20450;-77
2022/12/27 07:08:50;;;;;;;10.90;6.13;;;4.20;99.90;;;;;;5035234;28;20551;-75
2022/12/27 07:11:20;;;;;;;10.20;5.87;;;4.20;99.90;;;;;;5053045;28;20438;-76
2022/12/27 07:13:49;;;;;;;8.67;5.63;;;4.20;99.90;;;;;;5035741;28;20448;-77
2022/12/27 07:16:21;;;;;;;11.77;5.50;;;4.20;99.90;;;;;;5035084;28;20516;-76
2022/12/27 07:18:50;;;;;;;12.83;6.03;;;4.20;99.90;;;;;;5052886;28;20461;-76
2022/12/27 07:21:20;;;;;;;7.33;5.13;;;4.20;99.90;;;;;;5052852;28;20442;-77
2022/12/27 07:23:50;;;;;;;9.43;5.30;;;4.20;99.90;;;;;;5053232;28;20904;-76
2022/12/27 07:26:22;;;;;;;13.40;6.47;;;4.20;99.90;;;;;;5035050;28;20894;-76
2022/12/27 07:28:53;;;;;;;10.20;5.30;;;4.20;99.90;;;;;;5053475;28;20488;-76
2022/12/27 07:31:25;;;;;;;9.60;6.13;;;4.20;99.90;;;;;;5035059;28;20445;-77
2022/12/27 07:33:53;;;;;;;10.77;5.60;;;4.20;99.90;;;;;;5055999;28;20441;-77
2022/12/27 07:36:24;;;;;;;8.87;6.10;;;4.20;99.90;;;;;;5038779;28;20505;-77
2022/12/27 07:38:53;;;;;;;10.60;6.67;;;4.20;99.90;;;;;;5038892;28;20497;-76
2022/12/27 07:41:21;;;;;;;9.30;6.57;;;4.10;99.90;;;;;;5056539;28;20502;-76
2022/12/27 07:43:49;;;;;;;10.90;6.97;;;4.10;99.90;;;;;;5038638;28;20454;-77
2022/12/27 07:46:20;;;;;;;11.90;7.57;;;4.10;99.90;;;;;;5038608;28;20820;-76
2022/12/27 07:48:48;;;;;;;11.47;7.33;;;4.20;99.90;;;;;;5039452;28;20796;-76
2022/12/27 07:51:17;;;;;;;12.93;7.87;;;4.20;99.90;;;;;;5038401;28;20473;-76
2022/12/27 07:53:48;;;;;;;10.70;7.23;;;4.10;99.90;;;;;;5038481;28;20463;-76
2022/12/27 07:56:19;;;;;;;10.17;6.40;;;4.10;99.90;;;;;;5056295;28;20461;-76
2022/12/27 07:58:54;;;;;;;11.10;7.50;;;4.20;99.90;;;;;;5038512;28;20465;-75
2022/12/27 08:01:25;;;;;;;12.90;7.03;;;4.10;99.90;;;;;;5048407;28;20442;-76
2022/12/27 08:03:53;;;;;;;10.90;6.67;;;4.20;99.90;;;;;;5069328;28;20948;-76
2022/12/27 08:06:27;;;;;;;10.40;6.30;;;4.10;99.90;;;;;;5055855;28;20835;-76
2022/12/27 08:08:57;;;;;;;13.40;7.00;;;4.20;99.90;;;;;;5074902;28;21033;-76
2022/12/27 08:11:27;;;;;;;9.93;7.13;;;4.20;99.90;;;;;;5076330;28;20445;-76
2022/12/27 08:13:55;;;;;;;9.43;6.30;;;4.20;99.90;;;;;;5070316;28;20460;-76
2022/12/27 08:16:25;;;;;;;11.30;6.93;;;4.20;99.90;;;;;;5066658;28;20468;-76
2022/12/27 08:18:53;;;;;;;7.87;6.20;;;4.20;99.90;;;;;;5076272;28;20549;-76
2022/12/27 08:21:22;;;;;;;12.17;7.70;;;4.20;99.90;;;;;;5058705;28;20881;-76
2022/12/27 08:23:51;;;;;;;10.20;7.07;;;4.20;99.90;;;;;;5059199;28;20452;-76
2022/12/27 08:26:20;;;;;;;8.73;7.10;;;4.20;99.90;;;;;;5076585;28;20457;-78
2022/12/27 08:28:51;;;;;;;14.03;7.13;;;4.20;99.90;;;;;;5058115;28;20458;-77
2022/12/27 08:31:19;;;;;;;13.50;7.27;;;4.20;99.90;;;;;;5075303;28;20483;-76
2022/12/27 08:33:48;;;;;;;12.33;7.30;;;4.20;99.90;;;;;;5060107;28;20448;-77
2022/12/27 08:36:23;;;;;;;10.13;7.10;;;4.20;99.90;;;;;;5077763;28;21016;-76
2022/12/27 08:39:11;;;;;;;11.43;7.53;;;4.20;99.90;;;;;;5075106;28;20500;-76
2022/12/27 08:41:39;;;;;;;11.07;8.07;;;4.30;99.90;;;;;;5057496;28;20522;-76
2022/12/27 08:44:10;;;;;;;12.50;6.73;;;4.30;99.90;;;;;;5055741;28;20456;-75
2022/12/27 08:46:38;;;;;;;15.40;8.30;;;4.30;99.90;;;;;;5057628;28;20560;-76
2022/12/27 08:49:07;;;;;;;13.13;8.40;;;4.30;99.90;;;;;;5055612;28;20784;-76
2022/12/27 08:51:35;;;;;;;9.90;7.57;;;4.30;99.90;;;;;;5056394;28;20449;-76
2022/12/27 08:54:08;;;;;;;13.00;7.30;;;4.40;99.90;;;;;;5075657;28;20434;-76
2022/12/27 08:56:37;;;;;;;9.27;7.10;;;4.40;99.90;;;;;;5057415;28;20816;-76
2022/12/27 08:59:05;;;;;;;13.77;7.33;;;4.40;99.90;;;;;;5075432;28;20472;-76
2022/12/27 09:01:34;;;;;;;12.97;7.60;;;4.40;99.90;;;;;;5039416;28;20442;-76
2022/12/27 09:04:03;;;;;;;11.50;7.07;;;4.40;99.90;;;;;;5055126;28;20441;-76
2022/12/27 09:06:31;;;;;;;8.10;6.30;;;4.50;99.90;;;;;;5037316;28;20462;-76
2022/12/27 09:09:00;;;;;;;12.17;7.40;;;4.50;99.90;;;;;;5054977;28;20469;-76
2022/12/27 09:11:30;;;;;;;10.77;7.00;;;4.50;99.90;;;;;;5037089;28;20485;-76
2022/12/27 09:14:00;;;;;;;11.70;6.73;;;4.50;99.90;;;;;;5037337;28;20485;-76
2022/12/27 09:16:29;;;;;;;10.60;6.80;;;4.60;99.90;;;;;;5036817;28;20461;-76
2022/12/27 09:18:59;;;;;;;11.63;6.40;;;4.60;99.90;;;;;;5036842;28;21018;-76
2022/12/27 09:21:30;;;;;;;8.70;6.33;;;4.60;99.90;;;;;;5037285;28;20865;-76
2022/12/27 09:23:59;;;;;;;8.57;5.93;;;4.60;99.90;;;;;;5036903;28;20465;-76
2022/12/27 09:26:29;;;;;;;11.20;6.57;;;4.70;99.90;;;;;;5036765;28;20481;-76
2022/12/27 09:28:58;;;;;;;9.60;5.90;;;4.60;99.90;;;;;;5036776;28;20461;-77
2022/12/27 09:31:27;;;;;;;9.37;5.70;;;4.70;99.90;;;;;;5054795;28;20799;-76
2022/12/27 09:33:56;;;;;;;11.70;6.40;;;4.70;99.90;;;;;;5037319;28;20966;-76
2022/12/27 09:36:27;;;;;;;9.93;7.50;;;4.70;99.90;;;;;;5054377;28;20982;-76
2022/12/27 09:38:56;;;;;;;11.80;6.30;;;4.70;99.90;;;;;;5060934;28;20990;-76
2022/12/27 09:41:41;;;;;;;10.17;5.80;;;4.70;99.90;;;;;;5057814;28;20483;-76
2022/12/27 09:44:35;;;;;;;9.63;6.20;;;4.80;99.90;;;;;;5056141;28;20996;-76
2022/12/27 09:47:09;;;;;;;11.07;6.43;;;4.80;99.90;;;;;;5074337;28;20424;-76
2022/12/27 09:49:40;;;;;;;10.10;6.17;;;4.80;99.90;;;;;;5073079;28;20440;-76
2022/12/27 09:52:14;;;;;;;15.20;6.30;;;4.90;99.90;;;;;;5056299;28;21019;-76
2022/12/27 09:54:54;;;;;;;14.47;6.50;;;4.90;99.90;;;;;;5055816;28;20468;-76
2022/12/27 09:57:36;;;;;;;11.63;6.37;;;4.90;99.90;;;;;;5074373;28;20825;-76
2022/12/27 10:00:07;;;;;;;9.20;5.90;;;5.00;99.90;;;;;;5056022;28;20461;-76
2022/12/27 10:02:35;;;;;;;8.60;5.80;;;5.00;99.90;;;;;;5056072;28;20826;-76
2022/12/27 10:05:04;;;;;;;9.63;6.47;;;5.00;99.90;;;;;;5073808;28;20461;-76
2022/12/27 10:08:03;;;;;;;9.10;5.47;;;5.10;99.90;;;;;;5055918;28;20445;-76
2022/12/27 10:10:41;;;;;;;11.07;7.10;;;5.20;99.90;;;;;;5055863;28;20827;-76
2022/12/27 10:13:24;;;;;;;14.70;6.50;;;5.10;99.90;;;;;;5055928;28;20573;-76
2022/12/27 10:16:00;;;;;;;10.27;6.33;;;5.10;99.90;;;;;;5055779;28;20493;-76
2022/12/27 10:18:38;;;;;;;13.80;7.20;;;5.20;99.90;;;;;;5056304;28;20451;-78
2022/12/27 10:21:15;;;;;;;10.30;5.90;;;5.20;99.90;;;;;;5073882;28;20464;-76
2022/12/27 10:23:49;;;;;;;12.27;6.47;;;5.20;99.90;;;;;;5055798;28;20496;-77
2022/12/27 10:26:19;;;;;;;11.87;6.00;;;5.30;99.90;;;;;;5055752;28;20505;-76
2022/12/27 10:28:53;;;;;;;9.57;5.60;;;5.30;99.90;;;;;;5073672;28;21005;-76
2022/12/27 10:31:25;;;;;;;8.90;6.03;;;5.30;99.90;;;;;;5073549;28;20902;-76
2022/12/27 10:33:54;;;;;;;10.50;6.37;;;5.30;99.90;;;;;;5073456;28;20553;-78
2022/12/27 10:36:25;;;;;;;12.27;6.00;;;5.30;99.90;;;;;;5073648;28;20555;-76
2022/12/27 10:38:55;;;;;;;11.50;6.90;;;5.40;99.90;;;;;;5055440;28;20843;-76
2022/12/27 10:41:35;;;;;;;7.50;6.00;;;5.30;99.90;;;;;;5055409;28;20537;-76
2022/12/27 10:44:09;;;;;;;9.50;6.37;;;5.40;99.90;;;;;;5073543;28;20439;-76
2022/12/27 10:46:38;;;;;;;10.23;6.03;;;5.40;99.90;;;;;;5055456;28;20489;-76
2022/12/27 10:49:10;;;;;;;12.10;6.70;;;5.50;99.90;;;;;;5055976;28;20495;-76
2022/12/27 10:51:49;;;;;;;13.53;6.80;;;5.50;99.90;;;;;;5055607;28;20491;-76
2022/12/27 10:54:22;;;;;;;15.00;6.53;;;5.50;99.90;;;;;;5055322;28;20449;-76
2022/12/27 10:56:51;;;;;;;11.23;5.83;;;5.60;99.90;;;;;;5072499;28;20834;-76
2022/12/27 10:59:21;;;;;;;11.70;6.33;;;5.60;99.90;;;;;;5055378;28;20453;-76
2022/12/27 11:02:07;;;;;;;11.27;6.63;;;5.60;99.90;;;;;;5055480;28;20535;-76
2022/12/27 11:04:35;;;;;;;11.30;5.80;;;5.70;99.90;;;;;;5073421;28;20449;-76
2022/12/27 11:07:18;;;;;;;9.70;6.10;;;5.70;99.90;;;;;;5056941;28;20460;-76
2022/12/27 11:09:48;;;;;;;13.87;6.77;;;5.70;99.90;;;;;;5077862;28;20417;-76
2022/12/27 11:12:22;;;;;;;11.37;6.20;;;5.70;99.90;;;;;;5076008;28;20549;-76
2022/12/27 11:14:55;;;;;;;11.13;5.93;;;5.80;99.90;;;;;;5059338;28;20472;-76
2022/12/27 11:17:26;;;;;;;12.30;6.43;;;5.80;99.90;;;;;;5059483;28;20433;-76
2022/12/27 11:19:57;;;;;;;9.30;6.17;;;5.80;99.90;;;;;;5060256;28;20804;-76
2022/12/27 11:22:26;;;;;;;8.47;5.40;;;5.80;99.90;;;;;;5077126;28;20444;-76
2022/12/27 11:24:59;;;;;;;6.90;5.20;;;5.90;99.90;;;;;;5059014;28;20481;-76
2022/12/27 11:27:29;;;;;;;12.60;6.83;;;5.90;99.90;;;;;;5077509;28;20469;-76
2022/12/27 11:29:59;;;;;;;9.57;6.03;;;5.90;99.90;;;;;;5077182;28;20429;-76
2022/12/27 11:32:27;;;;;;;10.50;6.20;;;5.90;99.90;;;;;;5059225;28;20449;-76
2022/12/27 11:34:56;;;;;;;13.60;6.10;;;6.00;99.90;;;;;;5059289;28;20469;-77
2022/12/27 11:37:26;;;;;;;10.17;6.27;;;5.90;99.90;;;;;;5077284;28;20459;-76
2022/12/27 11:40:14;;;;;;;9.83;5.90;;;6.00;99.90;;;;;;5059504;28;20465;-77
2022/12/27 11:42:45;;;;;;;14.97;6.60;;;6.00;99.90;;;;;;5077409;28;20413;-76
2022/12/27 11:45:22;;;;;;;11.17;6.03;;;6.00;99.90;;;;;;5076828;28;20575;-76
2022/12/27 11:47:55;;;;;;;14.40;7.23;;;6.00;99.90;;;;;;5076889;28;20500;-76
2022/12/27 11:50:46;;;;;;;11.00;6.20;;;6.00;99.90;;;;;;5058612;28;20460;-76
2022/12/27 11:53:54;;;;;;;8.33;5.60;;;6.00;99.90;;;;;;5076964;28;20456;-77
2022/12/27 11:56:26;;;;;;;11.03;5.90;;;6.00;99.90;;;;;;5059254;28;20469;-77
2022/12/27 11:59:37;;;;;;;10.67;6.10;;;6.00;99.90;;;;;;5058893;28;20445;-78
2022/12/27 12:02:26;;;;;;;10.00;6.60;;;6.00;99.90;;;;;;4997434;28;20562;-76
2022/12/27 12:05:30;;;;;;;11.57;7.77;;;6.00;99.90;;;;;;5077777;28;20453;-77
2022/12/27 12:08:14;;;;;;;12.67;7.10;;;6.00;99.90;;;;;;5058596;28;20444;-77
2022/12/27 12:10:51;;;;;;;12.03;7.23;;;6.00;99.90;;;;;;5076552;28;20499;-77
2022/12/27 12:13:37;;;;;;;10.60;6.60;;;6.10;99.90;;;;;;5058660;28;20437;-77
2022/12/27 12:16:44;;;;;;;10.70;6.40;;;6.00;99.90;;;;;;5058443;28;20464;-77
2022/12/27 12:19:24;;;;;;;12.63;6.90;;;6.10;99.90;;;;;;5075802;28;20421;-77
2022/12/27 12:22:10;;;;;;;10.43;6.17;;;6.10;99.90;;;;;;5058074;28;20556;-77
2022/12/27 12:25:19;;;;;;;16.37;7.23;;;6.10;99.90;;;;;;5077193;28;20479;-77
2022/12/27 12:28:06;;;;;;;16.23;6.27;;;6.10;99.90;;;;;;5058899;28;20989;-78
2022/12/27 12:31:10;;;;;;;11.83;6.50;;;6.10;99.90;;;;;;5077229;28;20444;-78
2022/12/27 12:33:59;;;;;;;11.27;7.13;;;6.10;99.90;;;;;;5059008;28;20438;-77
2022/12/27 12:36:46;;;;;;;13.07;7.17;;;6.10;99.90;;;;;;5076581;28;20475;-77
2022/12/27 12:39:29;;;;;;;9.60;6.03;;;6.20;99.90;;;;;;5058050;28;20867;-77
2022/12/27 12:42:15;;;;;;;11.67;6.40;;;6.20;99.90;;;;;;5076271;28;20453;-77
2022/12/27 12:45:16;;;;;;;10.10;6.07;;;6.20;99.90;;;;;;5076317;28;20548;-77
2022/12/27 12:48:10;;;;;;;9.27;5.90;;;6.30;99.90;;;;;;5076215;28;20835;-76
2022/12/27 12:50:58;;;;;;;12.40;6.03;;;6.30;99.90;;;;;;5076080;28;20445;-77
2022/12/27 12:53:42;;;;;;;11.37;5.87;;;6.30;99.90;;;;;;5058080;28;20445;-77
2022/12/27 12:56:29;;;;;;;9.33;6.23;;;6.30;99.90;;;;;;5057472;28;20465;-77
2022/12/27 12:59:12;;;;;;;14.87;6.63;;;6.40;99.90;;;;;;5074038;28;20968;-77
2022/12/27 13:01:53;;;;;;;13.30;7.23;;;6.40;99.90;;;;;;5075429;28;20453;-76
2022/12/27 13:04:43;;;;;;;11.70;5.70;;;6.40;99.90;;;;;;5057171;28;20950;-76
2022/12/27 13:07:36;;;;;;;15.80;6.40;;;6.40;99.90;;;;;;5075121;28;20434;-76
2022/12/27 13:10:45;;;;;;;8.23;5.53;;;6.40;99.90;;;;;;5075095;28;20961;-77
2022/12/27 13:13:21;;;;;;;9.80;6.20;;;6.50;99.90;;;;;;5065665;28;20507;-76
2022/12/27 13:16:03;;;;;;;11.10;5.53;;;6.50;99.90;;;;;;5075407;28;20457;-76
2022/12/27 13:18:40;;;;;;;9.63;5.67;;;6.50;99.90;;;;;;5075271;28;20425;-77
2022/12/27 13:21:24;;;;;;;15.87;6.20;;;6.50;99.90;;;;;;5060061;28;20462;-80
2022/12/27 13:24:00;;;;;;;11.03;6.17;;;6.60;99.90;;;;;;5057939;28;20448;-76
2022/12/27 13:26:38;;;;;;;9.83;5.97;;;6.60;99.90;;;;;;5075288;28;20460;-76
2022/12/27 13:29:27;;;;;;;9.53;5.73;;;6.60;99.90;;;;;;5057324;28;20438;-77
2022/12/27 13:32:07;;;;;;;11.37;6.03;;;6.60;99.90;;;;;;5057732;28;20441;-77
2022/12/27 13:34:44;;;;;;;11.10;6.33;;;6.60;99.90;;;;;;5075847;28;20863;-78
2022/12/27 13:37:25;;;;;;;8.87;5.23;;;6.60;99.90;;;;;;5058209;28;20433;-77
2022/12/27 13:40:13;;;;;;;8.27;4.77;;;6.60;99.90;;;;;;5058018;28;20540;-77
2022/12/27 13:42:59;;;;;;;12.43;6.67;;;6.60;99.90;;;;;;5058125;28;20488;-77
2022/12/27 13:45:43;;;;;;;10.03;5.63;;;6.60;99.90;;;;;;5058011;28;20480;-76
2022/12/27 13:48:26;;;;;;;9.13;5.10;;;6.60;99.90;;;;;;5058861;28;20434;-76
2022/12/27 13:51:07;;;;;;;10.20;5.93;;;6.60;99.90;;;;;;5058356;28;20487;-78
2022/12/27 13:54:15;;;;;;;13.67;6.60;;;6.60;99.90;;;;;;5081331;28;20521;-78
2022/12/27 13:56:51;;;;;;;13.07;6.60;;;6.60;99.90;;;;;;5072926;28;20471;-78
2022/12/27 13:59:48;;;;;;;12.10;5.90;;;6.60;99.90;;;;;;5059447;28;20977;-78
2022/12/27 14:02:50;;;;;;;9.60;6.40;;;6.60;99.90;;;;;;5075923;28;20540;-78
2022/12/27 14:06:01;;;;;;;12.63;6.23;;;6.60;99.90;;;;;;5060063;28;20505;-78
2022/12/27 14:08:47;;;;;;;11.53;5.70;;;6.60;99.90;;;;;;5054452;28;20452;-78
2022/12/27 14:11:32;;;;;;;14.00;6.20;;;6.60;99.90;;;;;;5077302;28;20425;-78
2022/12/27 14:14:01;;;;;;;8.73;6.03;;;6.50;99.90;;;;;;5058980;28;20444;-78
2022/12/27 14:16:40;;;;;;;10.07;5.97;;;6.50;99.90;;;;;;5077023;28;20496;-78
2022/12/27 14:19:26;;;;;;;9.40;5.60;;;6.50;99.90;;;;;;5059194;28;20441;-78
2022/12/27 14:22:08;;;;;;;16.27;6.40;;;6.50;99.90;;;;;;5058650;28;20461;-78
2022/12/27 14:25:12;;;;;;;9.60;5.57;;;6.50;99.90;;;;;;5076064;28;20509;-77
2022/12/27 14:28:23;;;;;;;10.20;6.07;;;6.50;99.90;;;;;;5076176;28;20521;-77
2022/12/27 14:31:31;;;;;;;10.33;6.00;;;6.50;99.90;;;;;;5074068;28;20449;-77
2022/12/27 14:34:29;;;;;;;11.30;5.73;;;6.50;99.90;;;;;;5077133;28;20441;-77
2022/12/27 14:37:34;;;;;;;12.03;6.10;;;6.50;99.90;;;;;;5012199;28;20942;-77
2022/12/27 14:40:31;;;;;;;11.80;6.20;;;6.50;99.90;;;;;;5057275;28;20446;-77
2022/12/27 14:43:41;;;;;;;10.83;5.53;;;6.40;99.90;;;;;;5058829;28;20575;-77
2022/12/27 14:46:35;;;;;;;10.37;5.67;;;6.40;99.90;;;;;;5052675;28;20461;-78
2022/12/27 14:49:45;;;;;;;10.53;6.40;;;6.40;99.90;;;;;;5060213;28;20442;-78
2022/12/27 14:52:43;;;;;;;12.10;5.93;;;6.40;99.90;;;;;;5075037;28;20445;-77
2022/12/27 14:55:35;;;;;;;11.57;6.10;;;6.30;99.90;;;;;;5058147;28;20462;-77
2022/12/27 14:58:34;;;;;;;11.50;6.13;;;6.40;99.90;;;;;;5057458;28;20973;-77
2022/12/27 15:01:09;;;;;;;10.53;5.73;;;6.30;99.90;;;;;;5056980;28;20825;-77
2022/12/27 15:04:23;;;;;;;10.43;6.93;;;6.30;99.90;;;;;;5057463;28;20451;-78
2022/12/27 15:07:20;;;;;;;8.90;6.07;;;6.30;99.90;;;;;;5075878;28;20423;-77
2022/12/27 15:09:54;;;;;;;12.23;6.70;;;6.30;99.90;;;;;;5057193;28;20875;-77
2022/12/27 15:12:30;;;;;;;11.90;7.30;;;6.30;99.90;;;;;;5056535;28;20454;-78
2022/12/27 15:15:19;;;;;;;14.77;7.13;;;6.30;99.90;;;;;;5075658;28;20465;-76